Main page
METAR-TAF:

METAR-TAF

Airports :

Ängelholm–Helsingborg Airport

Helsingborg, Sweden

latitude: 56-17-46N, longitude: 012-50-50E, elevation: 21 m

Current weather observation

The report was made 20 minutes ago, at 16:50 UTC
Wind 6 kt from the South
Temperature 19°C
Humidity 78%
Pressure 1013 hPa
Visibility 10 km or more

METAR: ESTA 231650Z AUTO 17006KT 9999 OVC030/// 19/15 Q1013

Time: 19:10 (17:10 UTC)

Forecast

The report was made 3 hours and 7 minutes ago, at 14:03 UTC
Forecast valid from 23 at 15 UTC to 23 at 17 UTC
Wind 8 kt from the South
Visibility 10 km or more
Scattered clouds at a height of 4000 ft
Temporary
from 23 at 15 UTC to 23 at 17 UTC
Visibility: 4000 m
Broken clouds at a height of 1200 ft
Scattered clouds at a height of 2000 ft, Cumulonimbus.
rain showers,

TAF: ESTA 231403Z 2315/2317 17008KT 9999 SCT040 TEMPO 2315/2317 4000 SHRA BKN012 SCT020CB

Weather observations and forecasts of more than 4000 airports (METAR and TAF reports).

The available stations are represented by yellow and red dots on the map.

Hover mouse over dot to see the name of the station.

Then click to see weather observations and forecasts.

To change the map : click on the green buttons with a black cross to zoom in, on the green button with a dash to zoom out, or on the green arrows for adjacent maps.


METAR-TAF: